Portada
METAR-TAF:

METAR-TAF

Aeroports :

Bintulu, Malàisia

latitud: 03-12N, longitud: 113-02E, altitud: 2 m

Observació

L'informe es va fer fa 1 hora i 9 minuts, a les 23:00 UTC
Vent 2 kt amb direcció variable
Temperatura 25°C
Humitat 94%
Pressió 1011 hPa
Visibilitat 10 km o més
Escasses núvols a una alçada de 300 ft
Escasses núvols a una alçada de 1500 ft, Cumulonimbus.
Núvols disperses a una alçada de 1600 ft

METAR: WBGB 242300Z VRB02KT 9999 FEW003 FEW015CB SCT016 25/24 Q1011

Hora: 08:09 (00:09 UTC)

Pronòstic

L'informe es va fer fa 1 hora i 9 minuts, a les 23:00 UTC
Pronòstic vàlid del 25 a les 00 UTC al 26 a les 00 UTC
Vent 5 kt del Sud/Sud-Est
Visibilitat 10 km o més
Núvols disperses a una alçada de 1600 ft
Temporalment
l' 25 a les 00 UTC al 25 a les 03 UTC
Visibilitat: 5000 m
Escasses núvols a una alçada de 100 ft
pluja

TAF: WBGB 242300Z 2500/2600 15005KT 9999 SCT016 TEMPO 2500/2503 5000 RA FEW001

Observacions i pronòstics meteorològics de més de 4000 aeroports (METAR i TAF).

Les estacions disponibles són els punts grocs i vermells al mapa.

Posi el ratolí al punt desitjat per veure el nom de l'estació.

Feu clic per veure les observacions i els pronòstics meteorològics.

Per canviar el mapa: feu clic els botons verds amb una creu de color negre per apropar; al botó verd amb un guió per allunyar la imatge; o en les fletxes verdes per a mapes adjacents.


METAR-TAF: